Friday, January 19, 2018, 10:31 PM EST
Back to Local

KIWI, Wiscasset Municipal Airport

Location: Wiscasset, ME, United States Lat: 43.967
Local Time: 10:31 PM EST ( 3:31 GMT) Lon: -69.717
Time Zone: US/Eastern Elev: 68 ft

Show me the last for .
Show Decoded

2018-01-19 21:53 METAR KIWI 200253Z AUTO 00000KT 10SM OVC037 M03/M03 A2987 RMK AO2 SLP117
                 T10281033 58007 =
2018-01-19 20:53 METAR KIWI 200153Z AUTO 00000KT 10SM OVC037 M02/M03 A2989 RMK AO2 SLP124
                 T10221033 =
2018-01-19 19:53 METAR KIWI 200053Z AUTO 00000KT 10SM OVC034 M02/M03 A2990 RMK AO2 SLP126
                 T10221033 =
2018-01-19 18:53 METAR KIWI 192353Z AUTO 00000KT 10SM OVC036 M02/M03 A2990 RMK AO2 SLP125
                 T10221033 10006 21022 58005 =
2018-01-19 17:53 METAR KIWI 192253Z AUTO 00000KT 10SM OVC036 M02/M04 A2991 RMK AO2 SLP128
                 T10171039 =
2018-01-19 16:53 METAR KIWI 192153Z AUTO 00000KT 10SM OVC040 M01/M04 A2992 RMK AO2 SLP134
                 T10111044 =
2018-01-19 15:53 METAR KIWI 192053Z AUTO 00000KT 10SM OVC039 M01/M05 A2991 RMK AO2 SLP130
                 T10061050 53002 =
2018-01-19 14:53 METAR KIWI 191953Z AUTO 00000KT 10SM OVC033 00/M05 A2991 RMK AO2 SLP130
                 T00001050 =
2018-01-19 13:53 METAR KIWI 191853Z AUTO VRB04KT 10SM BKN032 OVC042 00/M06 A2990 RMK AO2 SLP127
                 T00001061 =
2018-01-19 12:53 METAR KIWI 191753Z AUTO VRB03KT 10SM CLR 00/M06 A2991 RMK AO2 SLP128 60001
                 T00001056 10006 21089 58022 =
2018-01-19 11:53 METAR KIWI 191653Z AUTO VRB04KT 10SM BKN041 M01/M05 A2993 RMK AO2 SLP136
                 T10061050 =
2018-01-19 10:53 METAR KIWI 191553Z AUTO 20003KT 10SM CLR M03/M04 A2995 RMK AO2 SLP144 T10281039
                 =
2018-01-19 09:53 METAR KIWI 191453Z AUTO 00000KT 10SM OVC040 M05/M06 A2997 RMK AO2 SLP150 60001
                 T10501056 53007 =
2018-01-19 08:53 METAR KIWI 191353Z AUTO 00000KT 9SM BKN042 BKN060 M07/M07 A2997 RMK AO2 SNE1256
                 SLP149 P0000 T10671067 =
2018-01-19 07:53 METAR KIWI 191253Z AUTO 00000KT 6SM -SN BR SCT028 BKN100 M08/M09 A2995 RMK AO2
                 SLP143 P0001 T10831089 =
2018-01-19 07:44 METAR KIWI 191244Z AUTO 00000KT 4SM -SN BR BKN029 BKN110 M08/M09 A2995 RMK AO2
                 P0001 T10831089 =
2018-01-19 07:37 METAR KIWI 191237Z AUTO 00000KT 4SM -SN BR BKN031 OVC110 M08/M09 A2995 RMK AO2
                 P0001 T10831089 =
2018-01-19 07:29 METAR KIWI 191229Z AUTO 00000KT 2 1/2SM -SN BR OVC029 M08/M09 A2995 RMK AO2
                 P0001 T10831089 =
2018-01-19 07:18 METAR KIWI 191218Z AUTO 00000KT 1 3/4SM -SN BR OVC020 M08/M09 A2995 RMK AO2
                 P0001 T10831089 =
2018-01-19 07:00 METAR KIWI 191200Z AUTO 00000KT 1SM -SN BR VV016 M09/M09 A2995 RMK AO2 P0000
                 T10891094 =
2018-01-19 06:51 METAR KIWI 191151Z AUTO 00000KT 1 1/2SM -SN BR OVC022 M09/M10 A2995 RMK AO2
                 SNB32 SLP143 P0000 60000 T10891100 11089 21139 53015 =
2018-01-19 06:50 METAR KIWI 191150Z AUTO 00000KT 1 3/4SM -SN BR OVC024 M09/M10 A2995 RMK AO2
                 SNB32 P0000 =
2018-01-19 05:53 METAR KIWI 191053Z AUTO 00000KT 10SM FEW050 BKN095 BKN120 M11/M12 A2992 RMK AO2
                 SLP134 T11061117 =
2018-01-19 04:53 METAR KIWI 190953Z AUTO 00000KT 10SM OVC050 M12/M13 A2993 RMK AO2 SLP135
                 T11171128 =
2018-01-19 03:53 METAR KIWI 190853Z AUTO 00000KT 10SM CLR M13/M14 A2991 RMK AO2 SLP128 T11281144
                 51005 =
2018-01-19 02:53 METAR KIWI 190753Z AUTO 00000KT 10SM CLR M13/M14 A2990 RMK AO2 SLP126 T11331144
                 =
2018-01-19 01:53 METAR KIWI 190653Z AUTO 00000KT 10SM CLR M13/M14 A2990 RMK AO2 SLP127 T11281144
                 =
2018-01-19 00:53 METAR KIWI 190553Z AUTO 00000KT 10SM CLR M12/M14 A2989 RMK AO2 SLP123 I6001
                 T11221139 11078 21122 58005 =
2018-01-18 23:53 METAR KIWI 190453Z AUTO 00000KT 10SM CLR M11/M13 A2990 RMK AO2 SLP127 I1000
                 T11111128 400001128 =
2018-01-18 22:53 METAR KIWI 190353Z AUTO 00000KT 10SM CLR M12/M13 A2990 RMK AO2 SLP127 I1000
                 T11221128 =

Support USWX by starting your Amazon purchase here.